Time;durP1;ratioP1;P1;durP2;ratioP2;P2;SDS_P1;SDS_P2;PMS_P1;PMS_P2;Temp;Humidity;BMP_temperature;BMP_pressure;BME280_temperature;BME280_humidity;BME280_pressure;Samples;Min_cycle;Max_cycle;Signal;HPM_P1;HPM_P2
2022/05/07 00:00:32;;;;;;;6.03;4.73;;;12.50;99.90;;;;;;5054653;28;20873;-60
2022/05/07 00:02:57;;;;;;;4.90;4.40;;;12.40;99.90;;;;;;5054961;28;20206;-61
2022/05/07 00:05:23;;;;;;;4.17;3.77;;;12.40;99.90;;;;;;5055305;28;20285;-61
2022/05/07 00:07:48;;;;;;;6.60;5.83;;;12.40;99.90;;;;;;5050662;28;20175;-61
2022/05/07 00:10:15;;;;;;;4.97;4.50;;;12.40;99.90;;;;;;5052754;28;20655;-60
2022/05/07 00:12:41;;;;;;;6.50;5.57;;;12.40;99.90;;;;;;5050473;28;20278;-61
2022/05/07 00:15:07;;;;;;;8.77;5.40;;;12.40;99.90;;;;;;5035420;28;20377;-60
2022/05/07 00:20:17;;;;;;;6.37;5.43;;;12.30;99.90;;;;;;5048170;28;21716;-60
2022/05/07 00:22:43;;;;;;;7.57;5.77;;;12.30;99.90;;;;;;5054700;28;20857;-67
2022/05/07 00:25:09;;;;;;;6.90;6.20;;;12.30;99.90;;;;;;5055050;28;20195;-60
2022/05/07 00:27:35;;;;;;;6.63;6.00;;;12.30;99.90;;;;;;5055066;28;20446;-66
2022/05/07 00:30:01;;;;;;;6.20;5.60;;;12.30;99.90;;;;;;5052843;28;20466;-62
2022/05/07 00:32:27;;;;;;;6.63;5.40;;;12.30;99.90;;;;;;5054259;28;20416;-61
2022/05/07 00:34:52;;;;;;;5.80;5.23;;;12.30;99.90;;;;;;5054887;28;20178;-60
2022/05/07 00:37:18;;;;;;;6.00;4.80;;;12.30;99.90;;;;;;5054956;28;20384;-66
2022/05/07 00:39:43;;;;;;;7.43;5.73;;;12.30;99.90;;;;;;5053328;28;20620;-60
2022/05/07 00:42:09;;;;;;;10.00;6.33;;;12.20;99.90;;;;;;5053017;28;20207;-66
2022/05/07 00:44:35;;;;;;;8.17;6.57;;;12.20;99.90;;;;;;5054609;28;20232;-67
2022/05/07 00:47:14;;;;;;;9.40;6.50;;;12.20;99.90;;;;;;5054832;28;20506;-67
2022/05/07 00:49:47;;;;;;;8.00;6.13;;;12.20;99.90;;;;;;5053748;28;20262;-67
2022/05/07 00:52:13;;;;;;;7.83;6.73;;;12.10;99.90;;;;;;5050801;28;20428;-67
2022/05/07 00:54:41;;;;;;;9.03;7.67;;;12.10;99.90;;;;;;5054592;28;20725;-66
2022/05/07 00:57:08;;;;;;;13.67;9.00;;;12.10;99.90;;;;;;5054651;28;20902;-61
2022/05/07 00:59:34;;;;;;;15.63;10.50;;;12.10;99.90;;;;;;5053348;28;20386;-66
2022/05/07 01:02:00;;;;;;;11.53;8.17;;;12.00;99.90;;;;;;5052159;28;20515;-66
2022/05/07 01:04:25;;;;;;;11.80;9.00;;;12.00;99.90;;;;;;5054394;28;20268;-67
2022/05/07 01:06:52;;;;;;;11.93;9.13;;;12.00;99.90;;;;;;5054329;28;20213;-66
2022/05/07 01:09:18;;;;;;;15.63;10.60;;;11.90;99.90;;;;;;5053471;28;20162;-61
2022/05/07 01:11:45;;;;;;;14.97;11.20;;;11.90;99.90;;;;;;5053109;28;20400;-62
2022/05/07 01:14:10;;;;;;;17.60;12.50;;;11.90;99.90;;;;;;5054098;28;20391;-67
2022/05/07 01:16:36;;;;;;;19.33;12.43;;;11.90;99.90;;;;;;5054212;28;20376;-61
2022/05/07 01:19:02;;;;;;;15.50;12.03;;;11.90;99.90;;;;;;5053011;28;20167;-66
2022/05/07 01:21:28;;;;;;;18.23;12.67;;;12.00;99.90;;;;;;5051891;28;20264;-66
2022/05/07 01:23:54;;;;;;;17.23;11.17;;;12.00;99.90;;;;;;5053849;28;20237;-62
2022/05/07 01:26:22;;;;;;;14.17;10.83;;;11.90;99.90;;;;;;5053881;28;20398;-67
2022/05/07 01:28:48;;;;;;;18.23;10.83;;;11.90;99.90;;;;;;5053134;28;20162;-61
2022/05/07 01:31:14;;;;;;;19.07;12.47;;;12.00;99.90;;;;;;5052266;28;20400;-61
2022/05/07 01:33:40;;;;;;;29.70;14.93;;;12.00;99.90;;;;;;5053680;28;20461;-61
2022/05/07 01:36:16;;;;;;;19.10;14.33;;;12.00;99.90;;;;;;5053685;28;20163;-62
2022/05/07 01:38:42;;;;;;;19.77;14.30;;;12.00;99.90;;;;;;5052595;28;20458;-67
2022/05/07 01:41:07;;;;;;;23.97;14.17;;;12.10;99.90;;;;;;5052082;28;20825;-61
2022/05/07 01:43:33;;;;;;;18.60;13.07;;;12.10;99.90;;;;;;5044037;28;20529;-67
2022/05/07 01:46:02;;;;;;;25.87;13.70;;;12.10;99.90;;;;;;5032434;28;20179;-62
2022/05/07 01:48:28;;;;;;;22.83;14.67;;;12.20;99.90;;;;;;5033329;28;20176;-68
2022/05/07 01:50:54;;;;;;;23.73;13.87;;;12.10;99.90;;;;;;5031801;28;20385;-61
2022/05/07 01:53:20;;;;;;;19.87;14.30;;;12.10;99.90;;;;;;5037656;28;20617;-67
2022/05/07 01:55:46;;;;;;;23.37;14.33;;;12.00;99.90;;;;;;5052000;28;20430;-61
2022/05/07 01:58:12;;;;;;;29.40;14.47;;;12.00;99.90;;;;;;5053038;28;20624;-67
2022/05/07 02:00:41;;;;;;;21.37;13.87;;;11.90;99.90;;;;;;5052663;28;20167;-62
2022/05/07 02:03:08;;;;;;;18.70;14.57;;;11.80;99.90;;;;;;5049471;28;20440;-66
2022/05/07 02:05:34;;;;;;;23.17;15.00;;;11.80;99.90;;;;;;5046505;28;20464;-66
2022/05/07 02:07:59;;;;;;;26.17;15.83;;;11.90;99.90;;;;;;5052554;28;20404;-66
2022/05/07 02:10:25;;;;;;;27.90;16.60;;;12.00;99.90;;;;;;5052447;28;20403;-64
2022/05/07 02:12:52;;;;;;;29.37;16.70;;;12.00;99.90;;;;;;5052014;28;20187;-67
2022/05/07 02:15:17;;;;;;;24.60;15.13;;;12.00;99.90;;;;;;5052177;28;20411;-66
2022/05/07 02:17:43;;;;;;;22.60;14.40;;;12.00;99.90;;;;;;5053407;28;20412;-61
2022/05/07 02:20:09;;;;;;;29.00;17.50;;;12.00;99.90;;;;;;5052425;28;20175;-61
2022/05/07 02:22:36;;;;;;;25.87;17.23;;;12.10;99.90;;;;;;5053039;28;20658;-65
2022/05/07 02:25:02;;;;;;;29.03;17.47;;;12.00;99.90;;;;;;5035795;28;20437;-61
2022/05/07 02:27:27;;;;;;;24.03;16.47;;;12.00;99.90;;;;;;5049685;28;20408;-66
2022/05/07 02:29:53;;;;;;;28.40;17.77;;;12.00;99.90;;;;;;5052182;28;20371;-65
2022/05/07 02:32:19;;;;;;;28.30;18.77;;;12.00;99.90;;;;;;5052726;28;20266;-67
2022/05/07 02:34:45;;;;;;;31.27;19.70;;;12.00;99.90;;;;;;5050471;28;20232;-66
2022/05/07 02:37:11;;;;;;;28.60;19.30;;;12.00;99.90;;;;;;5053197;28;20372;-67
2022/05/07 02:39:37;;;;;;;29.23;18.37;;;11.90;99.90;;;;;;5052274;28;20501;-67
2022/05/07 02:44:48;;;;;;;31.73;18.60;;;11.80;99.90;;;;;;5050866;28;20466;-62
2022/05/07 02:47:14;;;;;;;30.73;18.80;;;11.80;99.90;;;;;;5053002;28;20893;-63
2022/05/07 02:49:39;;;;;;;34.37;20.67;;;11.80;99.90;;;;;;5051885;28;20190;-67
2022/05/07 02:52:05;;;;;;;30.50;18.90;;;11.80;99.90;;;;;;5053127;28;20191;-61
2022/05/07 02:54:31;;;;;;;37.13;20.83;;;11.80;99.90;;;;;;5051377;28;20632;-62
2022/05/07 02:56:58;;;;;;;36.23;22.73;;;11.80;99.90;;;;;;5037343;28;20437;-62
2022/05/07 02:59:24;;;;;;;38.40;21.50;;;11.80;99.90;;;;;;5032384;28;20171;-67
2022/05/07 03:01:49;;;;;;;34.87;20.53;;;11.80;99.90;;;;;;5031800;28;20730;-61
2022/05/07 03:04:15;;;;;;;38.17;23.20;;;11.70;99.90;;;;;;5043114;28;20209;-61
2022/05/07 03:06:41;;;;;;;41.77;24.00;;;11.70;99.90;;;;;;5056270;28;20647;-62
2022/05/07 03:09:07;;;;;;;37.53;23.30;;;11.70;99.90;;;;;;5055539;28;20201;-67
2022/05/07 03:11:34;;;;;;;38.83;25.77;;;11.80;99.90;;;;;;5056562;28;20228;-62
2022/05/07 03:14:03;;;;;;;41.57;23.60;;;11.80;99.90;;;;;;5054965;28;20421;-61
2022/05/07 03:16:29;;;;;;;39.77;23.83;;;11.80;99.90;;;;;;5056471;28;20383;-61
2022/05/07 03:18:55;;;;;;;45.63;26.00;;;11.80;99.90;;;;;;5055500;28;20766;-68
2022/05/07 03:21:20;;;;;;;36.17;24.50;;;11.90;99.90;;;;;;5056325;28;20372;-61
2022/05/07 03:23:46;;;;;;;47.13;25.50;;;11.80;99.90;;;;;;5054433;28;20191;-66
2022/05/07 03:26:12;;;;;;;45.90;26.77;;;11.90;99.90;;;;;;5055748;28;20524;-66
2022/05/07 03:28:39;;;;;;;36.27;22.63;;;11.80;99.90;;;;;;5055341;28;20209;-67
2022/05/07 03:31:05;;;;;;;39.10;26.30;;;11.80;99.90;;;;;;5055109;28;20461;-61
2022/05/07 03:33:31;;;;;;;45.90;25.83;;;11.80;99.90;;;;;;5056049;28;20932;-67
2022/05/07 03:35:56;;;;;;;40.13;24.17;;;11.70;99.90;;;;;;5054128;28;20400;-61
2022/05/07 03:38:22;;;;;;;38.40;25.10;;;11.70;99.90;;;;;;5055923;28;20178;-68
2022/05/07 03:40:48;;;;;;;46.37;24.17;;;11.60;99.90;;;;;;5055130;28;20602;-63
2022/05/07 03:43:14;;;;;;;41.57;25.17;;;11.70;99.90;;;;;;5054404;28;20194;-67
2022/05/07 03:45:40;;;;;;;40.17;26.03;;;11.70;99.90;;;;;;5049700;28;20226;-66
2022/05/07 03:48:06;;;;;;;38.50;24.77;;;11.60;99.90;;;;;;5054935;28;20511;-67
2022/05/07 03:50:32;;;;;;;37.10;24.20;;;11.70;99.90;;;;;;5053901;28;20198;-67
2022/05/07 03:55:42;;;;;;;43.73;26.67;;;11.70;1.00;;;;;;5054473;28;20305;-61
2022/05/07 03:58:15;;;;;;;41.90;26.40;;;11.80;1.00;;;;;;5055849;28;20425;-66
2022/05/07 04:00:41;;;;;;;45.37;28.07;;;11.80;1.00;;;;;;5053198;28;20749;-66
2022/05/07 04:03:06;;;;;;;58.07;26.90;;;11.90;1.00;;;;;;5054432;28;20460;-66
2022/05/07 04:05:32;;;;;;;45.03;27.87;;;11.90;1.00;;;;;;5053398;28;20465;-66
2022/05/07 04:07:58;;;;;;;43.70;26.87;;;12.00;1.00;;;;;;5055574;28;20171;-62
2022/05/07 04:10:24;;;;;;;48.80;25.40;;;12.00;1.00;;;;;;5054545;28;20220;-62
2022/05/07 04:12:51;;;;;;;46.00;26.20;;;12.10;1.00;;;;;;5055352;28;20187;-61
2022/05/07 04:15:17;;;;;;;46.13;25.57;;;12.10;1.00;;;;;;5053484;28;20432;-62
2022/05/07 04:17:43;;;;;;;46.00;26.73;;;12.10;1.00;;;;;;5053758;28;20399;-61
2022/05/07 04:20:11;;;;;;;48.73;27.60;;;12.00;1.00;;;;;;5054375;28;20409;-67
2022/05/07 04:22:37;;;;;;;46.67;27.80;;;12.10;1.00;;;;;;5055202;28;20198;-62
2022/05/07 04:25:07;;;;;;;44.80;26.80;;;12.10;1.00;;;;;;5053210;28;20513;-61
2022/05/07 04:27:33;;;;;;;44.40;25.13;;;12.10;1.00;;;;;;5054003;28;20498;-67
2022/05/07 04:29:59;;;;;;;49.10;27.23;;;12.20;1.00;;;;;;5053197;28;20850;-61
2022/05/07 04:32:26;;;;;;;49.27;28.17;;;12.20;1.00;;;;;;5054934;28;20750;-67
2022/05/07 04:34:51;;;;;;;45.00;26.37;;;12.20;1.00;;;;;;5053431;28;20186;-67
2022/05/07 04:37:17;;;;;;;46.07;27.03;;;12.20;1.00;;;;;;5054599;28;20380;-61
2022/05/07 04:39:43;;;;;;;43.80;26.70;;;12.20;1.00;;;;;;5053887;28;20638;-62
2022/05/07 04:42:09;;;;;;;50.53;29.70;;;12.20;1.00;;;;;;5053836;28;20586;-67
2022/05/07 04:44:35;;;;;;;45.70;25.90;;;12.30;1.00;;;;;;5052141;28;20225;-67
2022/05/07 04:47:01;;;;;;;51.93;29.20;;;12.30;1.00;;;;;;5053764;28;20737;-67
2022/05/07 04:49:26;;;;;;;46.07;27.83;;;12.20;1.00;;;;;;5053794;28;20466;-64
2022/05/07 04:51:52;;;;;;;44.80;27.70;;;12.20;1.00;;;;;;5054432;28;20444;-62
2022/05/07 04:54:19;;;;;;;40.47;26.70;;;12.20;1.00;;;;;;5051346;28;20201;-61
2022/05/07 04:56:46;;;;;;;48.17;26.50;;;12.10;1.00;;;;;;5034316;28;20200;-61
2022/05/07 04:59:15;;;;;;;39.90;26.40;;;12.10;1.00;;;;;;5033740;28;20377;-61
2022/05/07 05:01:41;;;;;;;54.57;27.50;;;12.20;1.00;;;;;;5046214;28;20823;-61
2022/05/07 05:04:07;;;;;;;48.10;28.20;;;12.20;1.00;;;;;;5052362;28;20431;-66
2022/05/07 05:06:33;;;;;;;47.83;27.13;;;12.30;1.00;;;;;;5054521;28;20379;-67
2022/05/07 05:08:58;;;;;;;44.33;27.70;;;12.40;1.00;;;;;;5053467;28;20636;-61
2022/05/07 05:11:25;;;;;;;46.43;25.53;;;12.40;1.00;;;;;;5054217;28;20202;-62
2022/05/07 05:13:51;;;;;;;45.60;25.33;;;12.50;1.00;;;;;;5053806;28;20183;-68
2022/05/07 05:16:17;;;;;;;36.13;25.17;;;12.50;1.00;;;;;;5052594;28;20422;-67
2022/05/07 05:18:43;;;;;;;41.40;25.23;;;12.50;1.00;;;;;;5053260;28;20725;-67
2022/05/07 05:21:08;;;;;;;40.87;26.20;;;12.50;1.00;;;;;;5052366;28;20171;-61
2022/05/07 05:23:34;;;;;;;39.87;24.87;;;12.60;1.00;;;;;;5054046;28;20392;-61
2022/05/07 05:25:59;;;;;;;44.77;25.27;;;12.70;1.00;;;;;;5044766;28;20207;-62
2022/05/07 05:28:25;;;;;;;53.07;27.40;;;12.70;1.00;;;;;;5033845;28;20237;-67
2022/05/07 05:30:53;;;;;;;41.10;25.27;;;12.80;1.00;;;;;;5045727;28;20531;-68
2022/05/07 05:33:19;;;;;;;38.13;22.60;;;12.90;1.00;;;;;;5051913;28;20202;-66
2022/05/07 05:35:45;;;;;;;44.67;25.87;;;12.90;1.00;;;;;;5053816;28;20437;-67
2022/05/07 05:38:11;;;;;;;43.50;23.47;;;12.90;1.00;;;;;;5053642;28;20470;-61
2022/05/07 05:40:36;;;;;;;36.23;23.60;;;13.00;1.00;;;;;;5050899;28;20179;-61
2022/05/07 05:43:02;;;;;;;40.93;23.50;;;13.00;1.00;;;;;;5053603;28;20195;-61
2022/05/07 05:45:28;;;;;;;39.67;24.20;;;13.10;1.00;;;;;;5053743;28;20599;-61
2022/05/07 05:47:54;;;;;;;38.27;22.37;;;13.10;99.90;;;;;;5051931;28;20427;-62
2022/05/07 05:50:20;;;;;;;32.37;20.63;;;13.10;99.90;;;;;;5050659;28;20229;-67
2022/05/07 05:52:46;;;;;;;39.40;24.17;;;13.10;99.90;;;;;;5053452;28;20189;-61
2022/05/07 05:55:12;;;;;;;33.37;21.60;;;13.20;99.90;;;;;;5052241;28;20262;-61
2022/05/07 05:57:37;;;;;;;34.07;23.60;;;13.20;99.90;;;;;;5052196;28;20445;-61
2022/05/07 06:00:07;;;;;;;38.93;23.37;;;13.20;99.90;;;;;;5050644;28;20403;-62
2022/05/07 06:02:33;;;;;;;34.30;19.77;;;13.30;99.90;;;;;;5053128;28;20240;-62
2022/05/07 06:04:59;;;;;;;33.30;21.50;;;13.20;99.90;;;;;;5053334;28;20473;-67
2022/05/07 06:07:25;;;;;;;38.40;22.93;;;13.30;99.90;;;;;;5052910;28;20397;-61
2022/05/07 06:09:51;;;;;;;38.33;22.70;;;13.30;99.90;;;;;;5050613;28;20404;-67
2022/05/07 06:12:17;;;;;;;48.17;23.73;;;13.30;99.90;;;;;;5036896;28;20448;-67
2022/05/07 06:14:43;;;;;;;44.23;24.83;;;13.40;99.90;;;;;;5033425;28;20229;-67
2022/05/07 06:17:08;;;;;;;36.97;21.83;;;13.40;99.90;;;;;;5033137;28;20164;-67
2022/05/07 06:19:34;;;;;;;42.37;22.33;;;13.50;99.90;;;;;;5037139;28;20706;-61
2022/05/07 06:22:00;;;;;;;35.90;22.70;;;13.70;99.90;;;;;;5043842;28;20198;-61
2022/05/07 06:29:57;;;;;;;41.67;22.23;;;13.80;99.90;;;;;;5051977;28;20379;-67
2022/05/07 06:32:23;;;;;;;45.53;21.37;;;13.90;99.90;;;;;;5049942;28;20445;-61
2022/05/07 06:34:49;;;;;;;37.83;19.63;;;14.00;99.90;;;;;;5033202;28;20406;-67
2022/05/07 06:37:15;;;;;;;35.93;22.47;;;14.10;99.90;;;;;;5035148;28;20394;-61
2022/05/07 06:39:41;;;;;;;33.20;19.33;;;14.20;99.90;;;;;;5056360;28;20408;-67
2022/05/07 06:42:07;;;;;;;35.50;21.57;;;14.20;99.90;;;;;;5055176;28;20225;-60
2022/05/07 06:44:33;;;;;;;32.43;20.07;;;14.20;99.90;;;;;;5037747;28;20458;-60
2022/05/07 06:46:58;;;;;;;32.80;19.50;;;14.30;99.90;;;;;;5037033;28;20381;-66
2022/05/07 06:49:24;;;;;;;34.43;21.20;;;14.30;99.90;;;;;;5052632;28;20170;-59
2022/05/07 06:51:51;;;;;;;31.07;20.77;;;14.40;99.90;;;;;;5055206;28;20226;-66
2022/05/07 06:54:17;;;;;;;30.27;19.27;;;14.50;99.90;;;;;;5040463;28;20731;-59
2022/05/07 06:56:43;;;;;;;29.20;19.10;;;14.60;99.90;;;;;;5036757;28;20741;-65
2022/05/07 06:59:10;;;;;;;31.70;20.57;;;14.50;99.90;;;;;;5046223;28;20399;-61
2022/05/07 07:01:36;;;;;;;30.10;17.77;;;14.30;99.90;;;;;;5038093;28;20179;-60
2022/05/07 07:04:02;;;;;;;32.17;20.13;;;14.30;99.90;;;;;;5035089;28;20426;-65
2022/05/07 07:06:28;;;;;;;31.40;18.83;;;14.40;99.90;;;;;;5048289;28;20477;-60
2022/05/07 07:08:54;;;;;;;27.57;18.70;;;14.50;99.90;;;;;;5055667;28;20163;-60
2022/05/07 07:11:20;;;;;;;27.63;17.67;;;14.50;99.90;;;;;;5046033;28;20396;-66
2022/05/07 07:13:46;;;;;;;26.20;18.10;;;14.60;99.90;;;;;;5067411;28;20195;-66
2022/05/07 07:16:13;;;;;;;38.33;20.07;;;14.70;99.90;;;;;;5045177;28;20473;-66
2022/05/07 07:18:38;;;;;;;28.93;18.10;;;14.80;99.90;;;;;;5055601;28;20389;-66
2022/05/07 07:21:04;;;;;;;25.90;16.77;;;14.70;99.90;;;;;;5045108;28;20855;-61
2022/05/07 07:23:30;;;;;;;28.63;18.60;;;14.80;99.90;;;;;;5051700;28;20312;-60
2022/05/07 07:25:57;;;;;;;24.00;16.40;;;14.80;99.90;;;;;;5047108;28;20662;-59
2022/05/07 07:28:22;;;;;;;25.00;17.17;;;14.90;99.90;;;;;;5035914;28;20256;-62
2022/05/07 07:30:48;;;;;;;29.03;16.90;;;15.00;99.90;;;;;;5053405;28;20443;-59
2022/05/07 07:33:14;;;;;;;22.73;16.97;;;15.20;99.90;;;;;;5046936;28;20188;-65
2022/05/07 07:35:40;;;;;;;29.80;17.63;;;15.30;99.90;;;;;;5044044;28;20584;-65
2022/05/07 07:38:05;;;;;;;23.53;15.17;;;15.40;99.90;;;;;;5040590;28;20490;-59
2022/05/07 07:40:31;;;;;;;28.13;17.60;;;15.40;99.90;;;;;;5055034;28;20540;-59
2022/05/07 07:42:57;;;;;;;26.30;15.70;;;15.60;99.90;;;;;;5055344;28;20663;-65
2022/05/07 07:48:08;;;;;;;25.33;16.60;;;15.80;99.90;;;;;;5053432;28;20182;-64
2022/05/07 07:50:35;;;;;;;33.00;16.20;;;15.90;99.90;;;;;;5054914;28;20487;-59
2022/05/07 07:53:03;;;;;;;24.37;14.40;;;15.90;99.90;;;;;;5055614;28;20625;-60
2022/05/07 07:55:29;;;;;;;20.37;15.27;;;15.90;99.90;;;;;;5053756;28;20759;-59
2022/05/07 07:57:59;;;;;;;24.13;14.03;;;16.00;99.90;;;;;;5053604;28;20431;-60
2022/05/07 08:00:26;;;;;;;25.23;15.07;;;15.90;99.90;;;;;;5043516;28;20426;-65
2022/05/07 08:02:58;;;;;;;23.30;14.93;;;15.80;99.90;;;;;;5035313;28;20473;-65
2022/05/07 08:05:24;;;;;;;21.50;15.10;;;15.80;99.90;;;;;;5035367;28;20416;-59
2022/05/07 08:13:19;;;;;;;23.73;16.30;;;15.20;99.90;;;;;;5035494;28;20548;-59
2022/05/07 08:15:48;;;;;;;25.40;17.00;;;15.20;99.90;;;;;;5035254;28;20801;-60
2022/05/07 08:18:14;;;;;;;21.33;15.37;;;15.20;99.90;;;;;;5038765;28;20421;-61
2022/05/07 08:20:41;;;;;;;23.93;17.40;;;15.20;99.90;;;;;;5054449;28;20394;-59
2022/05/07 08:23:07;;;;;;;26.23;18.33;;;15.20;99.90;;;;;;5055174;28;20741;-66
2022/05/07 08:25:33;;;;;;;26.73;17.07;;;15.30;99.90;;;;;;5055006;28;20427;-66
2022/05/07 08:27:59;;;;;;;21.53;16.60;;;15.30;99.90;;;;;;5052468;28;20449;-65
2022/05/07 08:30:25;;;;;;;38.43;19.70;;;15.20;99.90;;;;;;5039958;28;20944;-65
2022/05/07 08:32:51;;;;;;;29.00;18.40;;;15.10;99.90;;;;;;5055071;28;20237;-65
2022/05/07 08:35:18;;;;;;;31.60;18.63;;;15.10;99.90;;;;;;5054559;28;20532;-65
2022/05/07 08:37:44;;;;;;;27.00;17.83;;;15.20;99.90;;;;;;5054897;28;20489;-66
2022/05/07 08:40:12;;;;;;;25.13;17.97;;;15.40;99.90;;;;;;5051288;28;20841;-65
2022/05/07 08:42:38;;;;;;;30.60;19.27;;;15.50;99.90;;;;;;5054886;28;20210;-66
2022/05/07 08:45:04;;;;;;;29.73;19.37;;;15.60;99.90;;;;;;5054705;28;20942;-60
2022/05/07 08:47:31;;;;;;;24.23;18.73;;;15.80;99.90;;;;;;5054737;28;20430;-66
2022/05/07 08:49:57;;;;;;;27.13;19.83;;;15.80;99.90;;;;;;5051713;28;20508;-59
2022/05/07 08:52:23;;;;;;;25.90;16.63;;;15.70;99.90;;;;;;5054699;28;20421;-59
2022/05/07 08:54:48;;;;;;;27.13;18.63;;;15.70;99.90;;;;;;5054274;28;20397;-59
2022/05/07 08:57:15;;;;;;;30.60;20.93;;;15.60;99.90;;;;;;5054581;28;20258;-65
2022/05/07 08:59:42;;;;;;;29.07;19.90;;;15.50;99.90;;;;;;5051651;28;20214;-65
2022/05/07 09:02:08;;;;;;;30.27;18.43;;;15.40;99.90;;;;;;5052721;28;20453;-60
2022/05/07 09:04:36;;;;;;;34.97;20.80;;;15.40;99.90;;;;;;5054300;28;20449;-59
2022/05/07 09:07:03;;;;;;;24.60;16.77;;;15.40;99.90;;;;;;5054501;28;20398;-60
2022/05/07 09:09:31;;;;;;;36.43;16.30;;;15.40;99.90;;;;;;5052294;28;21044;-59
2022/05/07 09:11:58;;;;;;;23.00;16.37;;;15.50;99.90;;;;;;5052947;28;20502;-60
2022/05/07 09:14:30;;;;;;;22.77;15.70;;;15.50;99.90;;;;;;5052087;28;20416;-60
2022/05/07 09:16:58;;;;;;;26.97;17.67;;;15.50;99.90;;;;;;5054131;28;20413;-59
2022/05/07 09:19:27;;;;;;;24.03;16.10;;;15.60;99.90;;;;;;5038802;28;20441;-66
2022/05/07 09:22:07;;;;;;;18.03;13.73;;;15.80;99.90;;;;;;5034084;28;20469;-59
2022/05/07 09:24:34;;;;;;;25.83;13.33;;;16.00;99.90;;;;;;5033787;28;20450;-59
2022/05/07 09:27:00;;;;;;;15.43;11.83;;;16.20;99.90;;;;;;5034168;28;20500;-67
2022/05/07 09:29:29;;;;;;;21.97;12.40;;;16.40;99.90;;;;;;5033747;28;20465;-66
2022/05/07 09:31:54;;;;;;;10.90;8.77;;;16.60;99.90;;;;;;5032105;28;20916;-66
2022/05/07 09:37:21;;;;;;;10.40;7.80;;;16.30;99.90;;;;;;5053824;28;20244;-65
2022/05/07 09:39:48;;;;;;;10.57;9.13;;;16.30;99.90;;;;;;5039381;28;20483;-65
2022/05/07 09:42:19;;;;;;;12.23;10.30;;;16.30;99.90;;;;;;5033624;28;20910;-59
2022/05/07 09:44:45;;;;;;;15.70;8.60;;;16.20;99.90;;;;;;5033896;28;20464;-65
2022/05/07 09:47:12;;;;;;;14.80;10.70;;;15.90;99.90;;;;;;5033699;28;20403;-59
2022/05/07 09:52:30;;;;;;;13.33;9.00;;;16.20;99.90;;;;;;5033616;28;20430;-61
2022/05/07 09:57:41;;;;;;;12.40;9.97;;;16.40;99.90;;;;;;5045225;28;20483;-58
2022/05/07 10:00:11;;;;;;;14.23;10.40;;;16.50;99.90;;;;;;5032580;28;20772;-62
2022/05/07 10:02:43;;;;;;;15.27;10.43;;;16.60;99.90;;;;;;5033337;28;20453;-66
2022/05/07 10:05:30;;;;;;;13.83;11.53;;;16.40;99.90;;;;;;5033400;28;20428;-60
2022/05/07 10:08:33;;;;;;;13.90;9.30;;;16.40;99.90;;;;;;5040730;28;20424;-67
2022/05/07 10:11:00;;;;;;;10.37;8.40;;;16.40;99.90;;;;;;5043314;28;20446;-60
2022/05/07 10:13:26;;;;;;;9.20;7.10;;;16.60;99.90;;;;;;5052228;28;20483;-60
2022/05/07 10:16:00;;;;;;;12.13;10.07;;;16.70;99.90;;;;;;5053467;28;20401;-60
2022/05/07 10:18:38;;;;;;;11.97;9.20;;;16.80;99.90;;;;;;5053207;28;20454;-67
2022/05/07 10:21:12;;;;;;;11.60;7.93;;;16.90;99.90;;;;;;5051964;28;20424;-67
2022/05/07 10:23:49;;;;;;;8.00;7.13;;;17.00;99.90;;;;;;5053168;28;20418;-60
2022/05/07 10:26:15;;;;;;;12.10;7.90;;;17.10;99.90;;;;;;5053046;28;20649;-67
2022/05/07 10:28:42;;;;;;;8.80;6.83;;;17.10;99.90;;;;;;5052100;28;20455;-60
2022/05/07 10:31:24;;;;;;;9.70;6.60;;;17.10;99.90;;;;;;5045128;28;20177;-66
2022/05/07 10:33:51;;;;;;;7.90;6.50;;;17.00;99.90;;;;;;5033191;28;20434;-59
2022/05/07 10:36:19;;;;;;;9.73;6.37;;;17.00;99.90;;;;;;5034247;28;20461;-60
2022/05/07 10:38:49;;;;;;;8.10;7.20;;;17.10;99.90;;;;;;5032303;28;20430;-60
2022/05/07 10:41:15;;;;;;;11.23;7.73;;;17.10;99.90;;;;;;5031849;28;20452;-60
2022/05/07 10:43:44;;;;;;;8.57;7.00;;;17.10;99.90;;;;;;5031993;28;20473;-62
2022/05/07 10:46:20;;;;;;;10.17;6.80;;;16.90;99.90;;;;;;5032833;28;20254;-66
2022/05/07 10:48:58;;;;;;;6.13;5.17;;;17.00;99.90;;;;;;5032123;28;20390;-66
2022/05/07 10:51:36;;;;;;;6.20;4.90;;;16.90;99.90;;;;;;5033132;28;20441;-67
2022/05/07 10:54:15;;;;;;;6.90;5.87;;;17.00;99.90;;;;;;5032950;28;20398;-60
2022/05/07 10:56:46;;;;;;;7.07;5.80;;;17.20;99.90;;;;;;5047373;28;20440;-60
2022/05/07 10:59:12;;;;;;;10.10;6.40;;;17.70;99.90;;;;;;5052163;28;20476;-59
2022/05/07 11:01:38;;;;;;;7.80;5.40;;;18.00;99.90;;;;;;5052865;28;20397;-68
2022/05/07 11:04:08;;;;;;;7.00;6.30;;;18.20;99.90;;;;;;5052523;28;20175;-60
2022/05/07 11:06:40;;;;;;;6.27;5.60;;;18.40;99.90;;;;;;5042507;28;20437;-69
2022/05/07 11:09:07;;;;;;;6.83;5.70;;;18.30;99.90;;;;;;5051853;28;20405;-60
2022/05/07 11:11:45;;;;;;;9.17;7.77;;;18.10;99.90;;;;;;5052872;28;20504;-61
2022/05/07 11:14:20;;;;;;;7.43;5.57;;;17.80;99.90;;;;;;5052755;28;20878;-60
2022/05/07 11:16:46;;;;;;;5.30;4.70;;;17.80;99.90;;;;;;5051567;28;20877;-61
2022/05/07 11:19:33;;;;;;;7.97;5.93;;;17.70;99.90;;;;;;5051802;28;20441;-68
2022/05/07 11:22:02;;;;;;;6.53;5.57;;;17.50;99.90;;;;;;5052700;28;20187;-69
2022/05/07 11:24:30;;;;;;;5.87;5.37;;;17.60;99.90;;;;;;5054286;28;20448;-68
2022/05/07 11:27:02;;;;;;;6.13;5.43;;;17.50;99.90;;;;;;5054506;28;20417;-59
2022/05/07 11:29:29;;;;;;;5.30;4.77;;;17.50;99.90;;;;;;5055338;28;20401;-63
2022/05/07 11:32:01;;;;;;;7.60;6.10;;;17.30;99.90;;;;;;5056171;28;20423;-68
2022/05/07 11:34:28;;;;;;;4.80;4.30;;;17.60;99.90;;;;;;5054891;28;20405;-68
2022/05/07 11:36:53;;;;;;;5.37;4.57;;;17.70;99.90;;;;;;5054276;28;20482;-60
2022/05/07 11:39:19;;;;;;;5.33;4.83;;;17.70;99.90;;;;;;5053881;28;20414;-68
2022/05/07 11:41:53;;;;;;;5.63;4.60;;;17.60;99.90;;;;;;5055882;28;20258;-61
2022/05/07 11:47:21;;;;;;;6.70;5.33;;;17.50;99.90;;;;;;5054448;28;20999;-61
2022/05/07 11:50:02;;;;;;;5.40;4.90;;;17.40;99.90;;;;;;5055067;28;20409;-60
2022/05/07 11:52:28;;;;;;;6.80;5.30;;;17.50;99.90;;;;;;5055696;28;20428;-60
2022/05/07 11:54:53;;;;;;;8.13;6.20;;;17.40;99.90;;;;;;5055836;28;20488;-60
2022/05/07 11:57:28;;;;;;;6.77;5.70;;;17.30;99.90;;;;;;5038360;28;20179;-68
2022/05/07 11:59:53;;;;;;;5.70;5.13;;;17.40;99.90;;;;;;5054372;28;20167;-60
2022/05/07 12:02:19;;;;;;;5.50;4.87;;;17.40;99.90;;;;;;5055446;28;20483;-61
2022/05/07 12:04:45;;;;;;;6.57;5.53;;;17.70;99.90;;;;;;5055514;28;20692;-68
2022/05/07 12:07:12;;;;;;;7.17;4.60;;;17.90;99.90;;;;;;5036663;28;20175;-67
2022/05/07 12:09:38;;;;;;;6.00;4.50;;;18.30;99.90;;;;;;5034639;28;20866;-68
2022/05/07 12:12:05;;;;;;;5.53;4.63;;;18.90;99.90;;;;;;5035565;28;20422;-69
2022/05/07 12:14:30;;;;;;;5.63;4.30;;;19.50;99.90;;;;;;5035692;28;20641;-60
2022/05/07 12:19:40;;;;;;;7.67;3.30;;;19.80;99.90;;;;;;5054202;28;20547;-67
2022/05/07 12:30:18;;;;;;;3.17;2.90;;;19.10;99.90;;;;;;5054617;28;20435;-70
2022/05/07 12:32:45;;;;;;;2.80;2.60;;;19.10;99.90;;;;;;5055254;28;20437;-71
2022/05/07 12:35:13;;;;;;;2.50;2.30;;;19.10;99.00;;;;;;5054662;28;20451;-66
2022/05/07 12:37:39;;;;;;;2.90;2.70;;;19.30;99.90;;;;;;5052684;28;20425;-64
2022/05/07 12:40:07;;;;;;;2.80;2.60;;;19.60;99.90;;;;;;5037594;28;20437;-63
2022/05/07 12:42:35;;;;;;;2.33;1.90;;;19.70;95.60;;;;;;5034915;28;20195;-70
2022/05/07 12:45:00;;;;;;;3.40;2.10;;;19.80;95.60;;;;;;5048524;28;20445;-63
2022/05/07 12:47:26;;;;;;;2.57;2.37;;;19.80;95.60;;;;;;5054939;28;20409;-63
2022/05/07 12:49:52;;;;;;;2.77;2.57;;;19.90;95.70;;;;;;5053900;28;20166;-71
2022/05/07 12:52:17;;;;;;;2.27;2.07;;;19.90;95.70;;;;;;5047202;28;20691;-63
2022/05/07 12:54:43;;;;;;;2.07;1.80;;;19.80;95.60;;;;;;5037227;28;20552;-68
2022/05/07 12:57:10;;;;;;;1.70;1.60;;;19.70;95.50;;;;;;5038010;28;20194;-62
2022/05/07 12:59:38;;;;;;;2.23;2.03;;;19.70;95.60;;;;;;5033708;28;20164;-66
2022/05/07 13:02:06;;;;;;;2.37;1.87;;;19.80;94.90;;;;;;5034451;28;20512;-70
2022/05/07 13:04:32;;;;;;;2.80;1.80;;;20.00;95.70;;;;;;5034255;28;20461;-62
2022/05/07 13:06:58;;;;;;;1.70;1.30;;;20.10;88.70;;;;;;5034604;28;20402;-68
2022/05/07 13:09:25;;;;;;;4.10;2.40;;;20.20;86.80;;;;;;5033525;28;20407;-68
2022/05/07 13:11:51;;;;;;;1.80;1.67;;;20.20;83.50;;;;;;5033833;28;21031;-61
2022/05/07 13:14:16;;;;;;;3.00;2.80;;;20.20;82.10;;;;;;5032724;28;20903;-61
2022/05/07 13:16:43;;;;;;;2.03;1.93;;;20.20;81.60;;;;;;5038376;28;20509;-69